createdAt,value
2023-03-10T00:00:08.667Z,86.17
2023-03-10T00:02:37.273Z,86.27
2023-03-10T00:05:06.567Z,86.38
2023-03-10T00:07:39.284Z,86.36
2023-03-10T00:10:07.657Z,86.62
2023-03-10T00:12:36.054Z,86.54
2023-03-10T00:15:04.476Z,86.24
2023-03-10T00:17:36.142Z,86.44
2023-03-10T00:20:10.835Z,85.97
2023-03-10T00:22:39.115Z,86.26
2023-03-10T00:25:09.464Z,86.18
2023-03-10T00:27:37.419Z,86.56
2023-03-10T00:30:05.033Z,86.73
2023-03-10T00:32:38.150Z,86.71
2023-03-10T00:35:08.957Z,86.80
2023-03-10T00:37:37.851Z,86.97
2023-03-10T00:40:10.473Z,87.43
2023-03-10T00:42:37.910Z,87.24
2023-03-10T00:45:05.480Z,87.21
2023-03-10T00:47:35.596Z,87.12
2023-03-10T00:50:03.307Z,86.81
2023-03-10T00:52:32.502Z,86.85
2023-03-10T00:54:59.677Z,86.73
2023-03-10T00:57:27.026Z,86.02
2023-03-10T00:59:54.047Z,86.00
2023-03-10T01:02:22.165Z,85.94
2023-03-10T01:04:51.761Z,85.86
2023-03-10T01:07:19.616Z,85.84
2023-03-10T01:09:47.903Z,85.80
2023-03-10T01:12:15.237Z,85.44
2023-03-10T01:14:43.094Z,85.40
2023-03-10T01:17:13.751Z,85.76
2023-03-10T01:19:42.339Z,86.01
2023-03-10T01:22:10.258Z,86.16
2023-03-10T01:24:40.695Z,86.28
2023-03-10T01:27:08.968Z,86.13
2023-03-10T01:29:37.033Z,86.24
2023-03-10T01:32:06.460Z,86.06
2023-03-10T01:34:35.466Z,86.37
2023-03-10T01:37:02.583Z,86.03
2023-03-10T01:39:29.798Z,85.75
2023-03-10T01:41:56.995Z,85.63
2023-03-10T01:44:24.328Z,85.42
2023-03-10T01:46:55.939Z,85.60
2023-03-10T01:49:51.103Z,85.63
2023-03-10T01:52:20.851Z,85.78
2023-03-10T01:55:22.027Z,85.77
2023-03-10T01:57:54.877Z,85.79
2023-03-10T02:00:24.128Z,85.69
2023-03-10T02:03:14.425Z,85.45
2023-03-10T02:05:45.136Z,85.28
2023-03-10T02:08:15.794Z,85.75
2023-03-10T02:10:44.783Z,86.01
2023-03-10T02:13:13.835Z,85.91
2023-03-10T02:15:43.191Z,85.93
2023-03-10T02:18:11.515Z,85.91
2023-03-10T02:21:01.534Z,85.77
2023-03-10T02:24:01.369Z,85.89
2023-03-10T02:26:41.316Z,85.65
2023-03-10T02:29:13.869Z,85.62
2023-03-10T02:31:41.360Z,85.69
2023-03-10T02:34:09.556Z,85.62
2023-03-10T02:36:38.951Z,85.64
2023-03-10T02:39:05.948Z,85.79
2023-03-10T02:41:35.652Z,85.92
2023-03-10T02:44:09.413Z,86.10
2023-03-10T02:46:37.016Z,85.83
2023-03-10T02:49:10.373Z,86.26
2023-03-10T02:51:45.340Z,86.20
2023-03-10T02:54:15.969Z,85.83
2023-03-10T02:56:43.300Z,85.75
2023-03-10T02:59:15.567Z,85.92
2023-03-10T03:01:47.862Z,85.91
2023-03-10T03:04:15.433Z,85.61
2023-03-10T03:06:43.596Z,85.35
2023-03-10T03:09:12.024Z,85.51
2023-03-10T03:11:40.491Z,85.44
2023-03-10T03:14:12.555Z,85.52
2023-03-10T03:16:40.732Z,85.38
2023-03-10T03:19:09.873Z,85.36
2023-03-10T03:21:37.699Z,85.34
2023-03-10T03:24:05.028Z,85.26
2023-03-10T03:26:34.946Z,85.31
2023-03-10T03:29:11.486Z,85.10
2023-03-10T03:31:39.573Z,84.66
2023-03-10T03:34:15.210Z,84.44
2023-03-10T03:36:44.551Z,84.41
2023-03-10T03:39:17.657Z,84.42
2023-03-10T03:41:48.569Z,83.97
2023-03-10T03:44:16.248Z,83.96
2023-03-10T03:46:46.692Z,83.54
2023-03-10T03:49:14.286Z,83.46
2023-03-10T03:51:47.398Z,83.30
2023-03-10T03:54:14.951Z,83.30
2023-03-10T03:56:42.441Z,82.97
2023-03-10T03:59:10.238Z,82.91
2023-03-10T04:01:40.200Z,82.78
2023-03-10T04:04:07.376Z,82.75
2023-03-10T04:06:37.815Z,82.67
2023-03-10T04:09:06.526Z,82.88
2023-03-10T04:11:34.371Z,82.58
2023-03-10T04:14:04.126Z,82.51
2023-03-10T04:16:32.401Z,82.56
2023-03-10T04:19:01.269Z,82.66
2023-03-10T04:21:30.555Z,82.35
2023-03-10T04:23:58.380Z,82.12
2023-03-10T04:26:30.236Z,82.23
2023-03-10T04:29:00.456Z,82.00
2023-03-10T04:31:34.672Z,81.74
2023-03-10T04:34:02.400Z,81.75
2023-03-10T04:36:29.956Z,81.81
2023-03-10T04:38:58.596Z,81.86
2023-03-10T04:41:29.138Z,81.80
2023-03-10T04:44:03.383Z,81.57
2023-03-10T04:46:32.369Z,81.29
2023-03-10T04:48:59.809Z,81.25
2023-03-10T04:51:26.853Z,80.87
2023-03-10T04:53:56.668Z,80.77
2023-03-10T04:56:26.362Z,80.56
2023-03-10T04:58:54.475Z,79.94
2023-03-10T05:01:22.003Z,79.70
2023-03-10T05:03:52.849Z,79.68
2023-03-10T05:06:20.988Z,79.79
2023-03-10T05:08:55.666Z,79.75
2023-03-10T05:11:24.859Z,79.42
2023-03-10T05:13:52.197Z,79.46
2023-03-10T05:16:24.779Z,79.78
2023-03-10T05:18:54.864Z,79.92
2023-03-10T05:21:27.654Z,79.92
2023-03-10T05:23:55.613Z,79.66
2023-03-10T05:26:25.434Z,79.42
2023-03-10T05:28:53.361Z,79.25
2023-03-10T05:31:30.569Z,79.22
2023-03-10T05:34:04.088Z,79.12
2023-03-10T05:36:31.578Z,78.75
2023-03-10T05:39:00.133Z,78.44
2023-03-10T05:41:29.818Z,78.32
2023-03-10T05:44:03.821Z,78.66
2023-03-10T05:46:32.099Z,78.78
2023-03-10T05:49:01.087Z,78.61
2023-03-10T05:51:28.706Z,78.32
2023-03-10T05:53:57.304Z,78.55
2023-03-10T05:56:27.791Z,78.33
2023-03-10T05:59:02.549Z,78.17
2023-03-10T06:01:32.651Z,77.86
2023-03-10T06:04:04.039Z,77.81
2023-03-10T06:06:33.072Z,77.66
2023-03-10T06:09:00.540Z,78.00
2023-03-10T06:11:34.502Z,77.66
2023-03-10T06:14:03.881Z,77.43
2023-03-10T06:16:32.187Z,77.24
2023-03-10T06:19:01.448Z,76.95
2023-03-10T06:21:29.229Z,76.03
2023-03-10T06:23:56.911Z,75.58
2023-03-10T06:26:26.913Z,75.25
2023-03-10T06:28:54.121Z,75.15
2023-03-10T06:31:22.813Z,74.32
2023-03-10T06:33:50.599Z,72.75
2023-03-10T06:36:19.893Z,72.14
2023-03-10T06:38:52.178Z,71.48
2023-03-10T06:41:39.890Z,71.03
2023-03-10T06:44:09.311Z,70.50
2023-03-10T06:46:38.723Z,69.94
2023-03-10T06:49:07.054Z,69.66
2023-03-10T06:51:38.244Z,69.82
2023-03-10T06:54:06.834Z,69.64
2023-03-10T06:56:35.361Z,69.81
2023-03-10T06:59:06.013Z,69.37
2023-03-10T07:01:35.145Z,69.09
2023-03-10T07:04:05.177Z,69.00
2023-03-10T07:06:45.022Z,68.79
2023-03-10T07:09:24.394Z,68.37
2023-03-10T07:11:57.533Z,68.18
2023-03-10T07:14:29.043Z,68.40
2023-03-10T07:17:00.950Z,68.38
2023-03-10T07:19:34.233Z,68.71
2023-03-10T07:22:11.427Z,68.76
2023-03-10T07:24:41.191Z,68.43
2023-03-10T07:27:17.787Z,68.68
2023-03-10T07:29:53.517Z,68.44
2023-03-10T07:32:21.790Z,68.11
2023-03-10T07:35:08.420Z,66.99
2023-03-10T07:37:42.870Z,67.24
2023-03-10T07:40:11.399Z,67.56
2023-03-10T07:42:43.057Z,68.53
2023-03-10T07:45:13.172Z,68.26
2023-03-10T07:47:57.756Z,68.41
2023-03-10T07:50:28.729Z,68.37
2023-03-10T07:52:56.796Z,67.91
2023-03-10T07:55:34.267Z,67.91
2023-03-10T07:58:05.851Z,67.91
2023-03-10T08:00:33.549Z,68.36
2023-03-10T08:03:05.762Z,68.09
2023-03-10T08:05:41.524Z,68.04
2023-03-10T08:08:18.022Z,68.38
2023-03-10T08:10:47.704Z,68.39
2023-03-10T08:13:17.719Z,68.30
2023-03-10T08:15:45.743Z,68.02
2023-03-10T08:18:14.931Z,67.49
2023-03-10T08:20:43.093Z,66.84
2023-03-10T08:23:19.235Z,66.61
2023-03-10T08:25:54.924Z,66.62
2023-03-10T08:28:30.472Z,66.30
2023-03-10T08:31:09.655Z,66.41
2023-03-10T08:33:44.455Z,66.54
2023-03-10T08:36:19.649Z,66.83
2023-03-10T08:38:51.067Z,66.64
2023-03-10T08:41:26.583Z,66.12
2023-03-10T08:44:34.680Z,66.00
2023-03-10T08:47:09.115Z,65.70
2023-03-10T08:49:43.166Z,65.63
2023-03-10T08:52:16.413Z,64.80
2023-03-10T08:54:45.321Z,64.48
2023-03-10T08:57:14.654Z,64.49
2023-03-10T08:59:44.329Z,64.03
2023-03-10T09:02:16.721Z,64.09
2023-03-10T09:04:47.865Z,64.08
2023-03-10T09:07:23.454Z,64.25
2023-03-10T09:09:53.658Z,64.36
2023-03-10T09:12:33.196Z,63.90
2023-03-10T09:15:07.319Z,64.09
2023-03-10T09:17:40.780Z,64.37
2023-03-10T09:20:15.462Z,64.79
2023-03-10T09:22:53.614Z,64.95
2023-03-10T09:25:25.126Z,64.44
2023-03-10T09:27:53.892Z,64.45
2023-03-10T09:30:23.322Z,64.30
2023-03-10T09:33:00.133Z,64.00
2023-03-10T09:35:33.319Z,63.18
2023-03-10T09:38:22.998Z,62.75
2023-03-10T09:41:48.605Z,61.32
2023-03-10T09:44:33.279Z,60.21
2023-03-10T09:47:15.131Z,60.01
2023-03-10T09:50:21.043Z,60.33
2023-03-10T09:53:00.648Z,59.28
2023-03-10T09:56:07.613Z,58.18
2023-03-10T09:58:55.183Z,57.17
2023-03-10T10:01:36.096Z,56.29
2023-03-10T10:04:18.580Z,55.36
2023-03-10T10:06:48.118Z,54.44
2023-03-10T10:09:29.822Z,54.42
2023-03-10T10:12:17.572Z,54.33
2023-03-10T10:14:57.284Z,53.39
2023-03-10T10:18:19.625Z,53.13
2023-03-10T10:20:59.070Z,53.84
2023-03-10T10:23:40.356Z,54.35
2023-03-10T10:29:40.328Z,56.30
2023-03-10T10:32:23.145Z,57.37
2023-03-10T10:35:15.063Z,58.01
2023-03-10T10:37:45.835Z,58.36
2023-03-10T10:40:26.102Z,59.07
2023-03-10T10:43:01.573Z,59.37
2023-03-10T10:45:38.663Z,58.98
2023-03-10T10:48:11.297Z,59.24
2023-03-10T10:50:55.113Z,60.16
2023-03-10T10:53:27.484Z,60.46
2023-03-10T10:59:44.038Z,60.98
2023-03-10T11:02:40.232Z,61.72
2023-03-10T11:05:38.247Z,62.87
2023-03-10T11:08:40.576Z,63.51
2023-03-10T11:11:33.560Z,64.37
2023-03-10T11:14:20.673Z,64.86
2023-03-10T11:17:29.781Z,65.49
2023-03-10T11:20:13.568Z,65.56
2023-03-10T11:23:24.165Z,65.69
2023-03-10T11:26:06.399Z,65.83
2023-03-10T11:28:44.584Z,65.85
2023-03-10T11:32:08.432Z,65.99
2023-03-10T11:34:50.823Z,65.76
2023-03-10T11:37:55.464Z,65.82
2023-03-10T11:44:12.335Z,65.10
2023-03-10T11:47:09.171Z,64.84
2023-03-10T11:49:41.140Z,65.21
2023-03-10T11:52:26.566Z,65.60
2023-03-10T11:55:13.096Z,65.72
2023-03-10T11:57:46.169Z,65.81
2023-03-10T12:00:21.334Z,65.98
2023-03-10T12:03:17.176Z,66.00
2023-03-10T12:05:58.468Z,66.12
2023-03-10T12:08:37.455Z,66.51
2023-03-10T12:11:24.967Z,66.41
2023-03-10T12:14:25.346Z,66.76
2023-03-10T12:17:08.055Z,67.18
2023-03-10T12:20:33.988Z,67.26
2023-03-10T12:26:49.865Z,67.40
2023-03-10T12:29:21.413Z,67.61
2023-03-10T12:31:55.564Z,68.09
2023-03-10T12:34:34.132Z,68.35
2023-03-10T12:37:15.735Z,68.27
2023-03-10T12:39:46.526Z,68.69
2023-03-10T12:42:32.697Z,68.84
2023-03-10T12:45:28.981Z,68.60
2023-03-10T12:48:20.807Z,68.68
2023-03-10T12:50:57.342Z,68.64
2023-03-10T12:53:36.469Z,68.81
2023-03-10T12:56:14.105Z,68.73
2023-03-10T12:59:13.198Z,68.75
2023-03-10T13:01:56.286Z,68.68
2023-03-10T13:04:41.554Z,68.53
2023-03-10T13:07:18.060Z,67.99
2023-03-10T13:09:51.311Z,67.81
2023-03-10T13:12:48.019Z,68.01
2023-03-10T13:15:26.207Z,67.69
2023-03-10T13:18:25.774Z,67.98
2023-03-10T13:21:05.837Z,68.06
2023-03-10T13:23:39.557Z,68.33
2023-03-10T13:26:16.610Z,68.10
2023-03-10T13:29:05.923Z,67.85
2023-03-10T13:31:36.160Z,67.51
2023-03-10T13:34:19.553Z,67.79
2023-03-10T13:36:54.679Z,67.76
2023-03-10T13:39:27.246Z,68.01
2023-03-10T13:41:59.726Z,67.47
2023-03-10T13:44:41.822Z,67.49
2023-03-10T13:47:22.901Z,67.67
2023-03-10T13:49:56.387Z,68.20
2023-03-10T13:52:28.950Z,68.52
2023-03-10T13:55:13.094Z,68.46
2023-03-10T13:57:45.607Z,68.54
2023-03-10T14:00:25.486Z,68.99
2023-03-10T14:02:56.538Z,68.71
2023-03-10T14:05:53.503Z,68.93
2023-03-10T14:08:30.653Z,68.56
2023-03-10T14:11:40.747Z,68.28
2023-03-10T14:14:38.251Z,68.40
2023-03-10T14:20:48.419Z,67.78
2023-03-10T14:23:28.828Z,67.22
2023-03-10T14:26:08.534Z,66.74
2023-03-10T14:28:36.420Z,66.45
2023-03-10T14:32:13.079Z,66.52
2023-03-10T14:38:13.881Z,67.46
2023-03-10T14:41:19.202Z,67.79
2023-03-10T14:44:14.206Z,67.76
2023-03-10T14:47:00.328Z,67.77
2023-03-10T14:49:31.181Z,67.89
2023-03-10T14:52:04.925Z,68.00
2023-03-10T14:54:44.918Z,68.23
2023-03-10T14:57:22.285Z,68.53
2023-03-10T15:00:13.253Z,68.76
2023-03-10T15:02:45.051Z,69.17
2023-03-10T15:05:27.690Z,69.74
2023-03-10T15:08:08.556Z,70.06
2023-03-10T15:11:17.450Z,70.23
2023-03-10T15:13:58.350Z,70.40
2023-03-10T15:16:40.840Z,70.76
2023-03-10T15:19:47.210Z,70.88
2023-03-10T15:22:17.149Z,71.00
2023-03-10T15:24:49.219Z,71.00
2023-03-10T15:27:22.813Z,71.37
2023-03-10T15:30:00.990Z,71.54
2023-03-10T15:32:38.945Z,71.96
2023-03-10T15:35:14.687Z,72.29
2023-03-10T15:37:48.134Z,72.47
2023-03-10T15:40:27.728Z,72.53
2023-03-10T15:43:04.450Z,72.98
2023-03-10T15:45:42.155Z,73.26
2023-03-10T15:48:13.652Z,73.43
2023-03-10T15:50:52.647Z,73.59
2023-03-10T15:53:30.829Z,74.02
2023-03-10T15:56:10.017Z,74.06
2023-03-10T15:59:04.356Z,74.45
2023-03-10T16:01:39.198Z,74.80
2023-03-10T16:04:08.401Z,75.04
2023-03-10T16:06:36.898Z,75.42
2023-03-10T16:09:10.388Z,75.57
2023-03-10T16:11:54.462Z,75.82
2023-03-10T16:14:30.395Z,76.29
2023-03-10T16:17:01.323Z,76.54
2023-03-10T16:19:29.064Z,76.81
2023-03-10T16:22:00.807Z,77.10
2023-03-10T16:24:33.610Z,77.37
2023-03-10T16:27:05.397Z,77.76
2023-03-10T16:29:34.509Z,78.01
2023-03-10T16:32:17.846Z,78.06
2023-03-10T16:34:50.053Z,78.39
2023-03-10T16:37:19.901Z,78.65
2023-03-10T16:39:54.294Z,78.93
2023-03-10T16:42:26.043Z,78.77
2023-03-10T16:44:57.827Z,78.95
2023-03-10T16:47:31.118Z,79.00
2023-03-10T16:50:02.756Z,79.14
2023-03-10T16:52:30.425Z,78.76
2023-03-10T16:55:04.640Z,78.97
2023-03-10T16:57:36.108Z,78.89
2023-03-10T17:00:11.974Z,79.04
2023-03-10T17:02:50.099Z,78.99
2023-03-10T17:05:18.795Z,79.35
2023-03-10T17:07:55.578Z,79.27
2023-03-10T17:10:26.340Z,79.33
2023-03-10T17:12:54.203Z,79.45
2023-03-10T17:15:28.420Z,79.47
2023-03-10T17:18:01.939Z,79.57
2023-03-10T17:20:35.464Z,79.21
2023-03-10T17:23:43.637Z,79.19
2023-03-10T17:26:23.283Z,79.22
2023-03-10T17:29:17.276Z,79.41
2023-03-10T17:31:57.993Z,79.09
2023-03-10T17:34:35.636Z,78.84
2023-03-10T17:37:06.481Z,79.19
2023-03-10T17:39:36.891Z,79.34
2023-03-10T17:42:07.736Z,79.32
2023-03-10T17:44:37.929Z,79.51
2023-03-10T17:47:12.680Z,79.65
2023-03-10T17:49:48.020Z,79.48
2023-03-10T17:52:22.493Z,79.56
2023-03-10T17:55:22.361Z,79.96
2023-03-10T17:57:57.500Z,79.92
2023-03-10T18:00:28.542Z,80.00
2023-03-10T18:02:58.421Z,80.28
2023-03-10T18:05:44.445Z,80.36
2023-03-10T18:08:16.950Z,80.29
2023-03-10T18:10:48.601Z,80.34
2023-03-10T18:13:19.984Z,80.65
2023-03-10T18:16:02.050Z,80.65
2023-03-10T18:18:30.191Z,80.82
2023-03-10T18:21:00.613Z,80.68
2023-03-10T18:23:34.361Z,80.85
2023-03-10T18:26:25.401Z,80.83
2023-03-10T18:28:53.502Z,81.11
2023-03-10T18:31:29.935Z,81.03
2023-03-10T18:34:03.390Z,81.24
2023-03-10T18:36:33.535Z,81.44
2023-03-10T18:39:07.811Z,81.47
2023-03-10T18:41:41.406Z,81.49
2023-03-10T18:44:11.063Z,81.50
2023-03-10T18:46:47.264Z,81.64
2023-03-10T18:49:15.044Z,82.00
2023-03-10T18:51:48.729Z,82.03
2023-03-10T18:54:20.832Z,82.56
2023-03-10T18:56:51.242Z,82.49
2023-03-10T18:59:24.880Z,82.92
2023-03-10T19:01:55.492Z,83.08
2023-03-10T19:04:25.326Z,83.12
2023-03-10T19:06:57.464Z,83.44
2023-03-10T19:09:29.115Z,83.41
2023-03-10T19:12:14.702Z,83.81
2023-03-10T19:14:48.819Z,84.14
2023-03-10T19:17:26.247Z,84.42
2023-03-10T19:19:54.153Z,84.90
2023-03-10T19:22:22.519Z,85.13
2023-03-10T19:24:59.198Z,85.25
2023-03-10T19:27:31.878Z,85.65
2023-03-10T19:32:52.221Z,86.25
2023-03-10T19:35:24.039Z,86.15
2023-03-10T19:37:52.650Z,86.51
2023-03-10T19:40:27.904Z,86.67
2023-03-10T19:42:57.567Z,87.12
2023-03-10T19:45:33.503Z,87.52
2023-03-10T19:48:04.185Z,87.94
2023-03-10T19:50:33.309Z,87.78
2023-03-10T19:53:02.180Z,87.88
2023-03-10T19:55:34.319Z,88.06
2023-03-10T19:58:03.418Z,88.33
2023-03-10T20:00:36.003Z,88.30
2023-03-10T20:03:06.496Z,88.50
2023-03-10T20:05:42.344Z,88.71
2023-03-10T20:08:11.310Z,88.93
2023-03-10T20:10:45.007Z,88.91
2023-03-10T20:13:13.732Z,88.98
2023-03-10T20:15:47.690Z,89.17
2023-03-10T20:18:21.420Z,89.40
2023-03-10T20:20:49.892Z,89.41
2023-03-10T20:23:21.732Z,89.64
2023-03-10T20:25:51.164Z,89.79
2023-03-10T20:28:19.731Z,89.97
2023-03-10T20:30:49.203Z,90.05
2023-03-10T20:33:21.897Z,90.38
2023-03-10T20:35:56.860Z,90.24
2023-03-10T20:38:25.369Z,90.46
2023-03-10T20:40:55.987Z,90.80
2023-03-10T20:43:30.413Z,90.79
2023-03-10T20:46:06.708Z,91.01
2023-03-10T20:48:43.428Z,91.27
2023-03-10T20:51:15.087Z,91.45
2023-03-10T20:53:45.663Z,91.56
2023-03-10T20:56:16.024Z,91.60
2023-03-10T20:58:47.180Z,91.72
